sensor_id;sensor_type;location;lat;lon;timestamp;pressure;altitude;pressure_sealevel;temperature;humidity
75039;BME280;63609;49.992;14.512;2023-03-30T00:03:30;97896.28;;;5.51;60.73
75039;BME280;63609;49.992;14.512;2023-03-30T00:06:12;97893.75;;;5.71;60.25
75039;BME280;63609;49.992;14.512;2023-03-30T00:08:49;97893.50;;;5.63;60.60
75039;BME280;63609;49.992;14.512;2023-03-30T00:11:20;97894.81;;;5.58;60.92
75039;BME280;63609;49.992;14.512;2023-03-30T00:13:49;97897.47;;;5.58;61.09
75039;BME280;63609;49.992;14.512;2023-03-30T00:16:20;97900.59;;;5.63;61.26
75039;BME280;63609;49.992;14.512;2023-03-30T00:18:48;97901.38;;;5.42;61.37
75039;BME280;63609;49.992;14.512;2023-03-30T00:21:16;97896.34;;;5.17;62.66
75039;BME280;63609;49.992;14.512;2023-03-30T00:23:50;97889.59;;;5.24;63.86
75039;BME280;63609;49.992;14.512;2023-03-30T00:26:19;97890.44;;;5.25;64.87
75039;BME280;63609;49.992;14.512;2023-03-30T00:28:47;97892.88;;;5.05;66.14
75039;BME280;63609;49.992;14.512;2023-03-30T00:31:14;97896.59;;;4.80;67.20
75039;BME280;63609;49.992;14.512;2023-03-30T00:33:41;97904.75;;;4.66;68.06
75039;BME280;63609;49.992;14.512;2023-03-30T00:36:14;97903.78;;;4.67;68.66
75039;BME280;63609;49.992;14.512;2023-03-30T00:38:42;97891.66;;;4.76;68.10
75039;BME280;63609;49.992;14.512;2023-03-30T00:41:10;97892.25;;;4.68;69.05
75039;BME280;63609;49.992;14.512;2023-03-30T00:44:00;97880.44;;;4.39;69.95
75039;BME280;63609;49.992;14.512;2023-03-30T00:46:29;97892.63;;;4.17;71.26
75039;BME280;63609;49.992;14.512;2023-03-30T00:49:01;97907.75;;;4.27;70.88
75039;BME280;63609;49.992;14.512;2023-03-30T00:51:34;97886.31;;;4.42;71.57
75039;BME280;63609;49.992;14.512;2023-03-30T00:54:09;97880.84;;;4.10;72.23
75039;BME280;63609;49.992;14.512;2023-03-30T00:56:40;97871.84;;;4.13;72.91
75039;BME280;63609;49.992;14.512;2023-03-30T00:59:08;97860.44;;;4.23;72.95
75039;BME280;63609;49.992;14.512;2023-03-30T01:01:36;97861.41;;;4.22;73.64
75039;BME280;63609;49.992;14.512;2023-03-30T01:04:07;97865.72;;;4.23;73.27
75039;BME280;63609;49.992;14.512;2023-03-30T01:06:36;97857.47;;;4.39;73.81
75039;BME280;63609;49.992;14.512;2023-03-30T01:09:07;97857.31;;;4.18;74.05
75039;BME280;63609;49.992;14.512;2023-03-30T01:11:35;97852.03;;;4.18;74.22
75039;BME280;63609;49.992;14.512;2023-03-30T01:14:05;97853.03;;;4.29;74.17
75039;BME280;63609;49.992;14.512;2023-03-30T01:34:01;97827.81;;;4.36;74.95
75039;BME280;63609;49.992;14.512;2023-03-30T01:36:54;97819.16;;;4.34;75.64
75039;BME280;63609;49.992;14.512;2023-03-30T01:42:07;97819.88;;;4.58;74.39
75039;BME280;63609;49.992;14.512;2023-03-30T01:47:18;97806.53;;;4.48;75.01
75039;BME280;63609;49.992;14.512;2023-03-30T01:55:20;97793.34;;;4.71;74.77
75039;BME280;63609;49.992;14.512;2023-03-30T02:00:29;97784.16;;;4.97;74.23
75039;BME280;63609;49.992;14.512;2023-03-30T02:03:03;97795.34;;;4.90;73.88
75039;BME280;63609;49.992;14.512;2023-03-30T02:05:33;97801.91;;;5.29;72.90
75039;BME280;63609;49.992;14.512;2023-03-30T02:08:14;97805.69;;;5.47;71.97
75039;BME280;63609;49.992;14.512;2023-03-30T02:10:44;97804.50;;;5.40;72.08
75039;BME280;63609;49.992;14.512;2023-03-30T02:13:14;97792.88;;;5.31;72.60
75039;BME280;63609;49.992;14.512;2023-03-30T02:15:52;97785.41;;;5.25;72.74
75039;BME280;63609;49.992;14.512;2023-03-30T02:18:21;97782.75;;;5.36;72.57
75039;BME280;63609;49.992;14.512;2023-03-30T02:20:48;97776.44;;;5.48;72.00
75039;BME280;63609;49.992;14.512;2023-03-30T02:23:20;97781.38;;;5.42;72.41
75039;BME280;63609;49.992;14.512;2023-03-30T02:25:49;97788.81;;;5.59;71.72
75039;BME280;63609;49.992;14.512;2023-03-30T02:28:17;97788.28;;;5.65;71.42
75039;BME280;63609;49.992;14.512;2023-03-30T02:30:45;97792.66;;;5.87;70.60
75039;BME280;63609;49.992;14.512;2023-03-30T02:36:07;97796.72;;;6.12;69.43
75039;BME280;63609;49.992;14.512;2023-03-30T02:41:46;97753.59;;;5.68;70.80
75039;BME280;63609;49.992;14.512;2023-03-30T02:47:10;97708.78;;;5.97;68.94
75039;BME280;63609;49.992;14.512;2023-03-30T02:52:29;97714.50;;;6.23;68.67
75039;BME280;63609;49.992;14.512;2023-03-30T02:58:32;97728.53;;;6.14;68.93
75039;BME280;63609;49.992;14.512;2023-03-30T03:01:34;97724.94;;;5.94;69.49
75039;BME280;63609;49.992;14.512;2023-03-30T03:04:12;97704.50;;;6.06;68.84
75039;BME280;63609;49.992;14.512;2023-03-30T03:07:01;97695.84;;;5.83;70.08
75039;BME280;63609;49.992;14.512;2023-03-30T03:09:29;97705.19;;;5.45;71.01
75039;BME280;63609;49.992;14.512;2023-03-30T03:11:57;97684.75;;;5.15;72.61
75039;BME280;63609;49.992;14.512;2023-03-30T03:14:29;97671.66;;;4.93;73.44
75039;BME280;63609;49.992;14.512;2023-03-30T03:16:56;97669.28;;;5.11;73.29
75039;BME280;63609;49.992;14.512;2023-03-30T03:19:31;97691.84;;;5.26;72.45
75039;BME280;63609;49.992;14.512;2023-03-30T03:22:04;97680.41;;;5.67;71.19
75039;BME280;63609;49.992;14.512;2023-03-30T03:24:34;97682.22;;;5.67;70.48
75039;BME280;63609;49.992;14.512;2023-03-30T03:27:07;97676.78;;;5.89;69.10
75039;BME280;63609;49.992;14.512;2023-03-30T03:29:51;97667.84;;;5.60;70.40
75039;BME280;63609;49.992;14.512;2023-03-30T03:32:18;97666.31;;;5.46;71.24
75039;BME280;63609;49.992;14.512;2023-03-30T03:34:47;97658.31;;;5.57;71.09
75039;BME280;63609;49.992;14.512;2023-03-30T03:37:15;97652.56;;;5.52;70.97
75039;BME280;63609;49.992;14.512;2023-03-30T03:39:43;97643.53;;;5.55;70.88
75039;BME280;63609;49.992;14.512;2023-03-30T03:42:14;97647.66;;;5.68;70.43
75039;BME280;63609;49.992;14.512;2023-03-30T03:44:56;97649.09;;;5.52;70.72
75039;BME280;63609;49.992;14.512;2023-03-30T03:47:23;97638.44;;;5.63;70.37
75039;BME280;63609;49.992;14.512;2023-03-30T03:49:51;97632.16;;;5.64;70.02
75039;BME280;63609;49.992;14.512;2023-03-30T03:52:18;97627.81;;;5.84;68.96
75039;BME280;63609;49.992;14.512;2023-03-30T03:54:45;97637.97;;;6.09;68.72
75039;BME280;63609;49.992;14.512;2023-03-30T03:57:12;97636.28;;;6.48;66.78
75039;BME280;63609;49.992;14.512;2023-03-30T03:59:40;97627.13;;;6.71;66.00
75039;BME280;63609;49.992;14.512;2023-03-30T04:02:07;97620.13;;;6.80;65.27
75039;BME280;63609;49.992;14.512;2023-03-30T04:04:35;97624.06;;;6.76;64.91
75039;BME280;63609;49.992;14.512;2023-03-30T04:07:03;97612.56;;;6.47;65.53
75039;BME280;63609;49.992;14.512;2023-03-30T04:09:32;97620.09;;;6.41;65.81
75039;BME280;63609;49.992;14.512;2023-03-30T04:12:19;97620.22;;;6.30;66.69
75039;BME280;63609;49.992;14.512;2023-03-30T04:15:17;97608.50;;;6.33;66.38
75039;BME280;63609;49.992;14.512;2023-03-30T04:18:08;97633.69;;;6.18;67.11
75039;BME280;63609;49.992;14.512;2023-03-30T04:21:04;97637.13;;;6.49;66.14
75039;BME280;63609;49.992;14.512;2023-03-30T04:23:48;97620.84;;;6.23;66.54
75039;BME280;63609;49.992;14.512;2023-03-30T04:26:18;97615.53;;;5.73;68.27
75039;BME280;63609;49.992;14.512;2023-03-30T04:29:03;97613.25;;;5.68;69.26
75039;BME280;63609;49.992;14.512;2023-03-30T04:31:51;97602.97;;;5.54;68.80
75039;BME280;63609;49.992;14.512;2023-03-30T04:34:42;97608.88;;;5.37;69.57
75039;BME280;63609;49.992;14.512;2023-03-30T04:37:32;97609.06;;;5.03;71.50
75039;BME280;63609;49.992;14.512;2023-03-30T04:40:04;97617.59;;;5.28;71.15
75039;BME280;63609;49.992;14.512;2023-03-30T04:42:53;97622.16;;;5.05;72.12
75039;BME280;63609;49.992;14.512;2023-03-30T04:45:37;97604.09;;;5.10;72.22
75039;BME280;63609;49.992;14.512;2023-03-30T04:48:37;97600.75;;;5.29;71.02
75039;BME280;63609;49.992;14.512;2023-03-30T04:51:20;97618.19;;;4.78;73.27
75039;BME280;63609;49.992;14.512;2023-03-30T04:54:06;97614.50;;;4.91;72.51
75039;BME280;63609;49.992;14.512;2023-03-30T04:56:53;97617.94;;;4.81;73.40
75039;BME280;63609;49.992;14.512;2023-03-30T04:59:47;97627.47;;;4.73;73.98
75039;BME280;63609;49.992;14.512;2023-03-30T05:02:34;97638.22;;;4.49;75.10
75039;BME280;63609;49.992;14.512;2023-03-30T05:05:22;97628.47;;;4.49;74.77
75039;BME280;63609;49.992;14.512;2023-03-30T05:08:20;97622.28;;;4.39;75.11
75039;BME280;63609;49.992;14.512;2023-03-30T05:11:07;97615.13;;;4.51;74.95
75039;BME280;63609;49.992;14.512;2023-03-30T05:14:13;97594.41;;;4.35;75.05
75039;BME280;63609;49.992;14.512;2023-03-30T05:17:11;97602.81;;;4.40;75.30
75039;BME280;63609;49.992;14.512;2023-03-30T05:19:54;97618.19;;;4.35;75.35
75039;BME280;63609;49.992;14.512;2023-03-30T05:22:44;97607.16;;;4.30;75.70
75039;BME280;63609;49.992;14.512;2023-03-30T05:25:31;97608.50;;;4.13;75.69
75039;BME280;63609;49.992;14.512;2023-03-30T05:28:23;97606.66;;;4.25;75.14
75039;BME280;63609;49.992;14.512;2023-03-30T05:31:08;97607.75;;;4.22;75.53
75039;BME280;63609;49.992;14.512;2023-03-30T05:34:14;97616.78;;;4.31;74.86
75039;BME280;63609;49.992;14.512;2023-03-30T05:36:56;97614.06;;;4.53;73.75
75039;BME280;63609;49.992;14.512;2023-03-30T05:39:38;97602.59;;;4.21;75.02
75039;BME280;63609;49.992;14.512;2023-03-30T05:42:28;97611.94;;;4.25;74.58
75039;BME280;63609;49.992;14.512;2023-03-30T05:45:07;97613.72;;;4.47;73.79
75039;BME280;63609;49.992;14.512;2023-03-30T05:47:57;97609.00;;;4.50;73.76
75039;BME280;63609;49.992;14.512;2023-03-30T05:50:59;97617.91;;;4.49;73.66
75039;BME280;63609;49.992;14.512;2023-03-30T05:53:52;97608.38;;;4.58;73.82
75039;BME280;63609;49.992;14.512;2023-03-30T05:56:45;97605.72;;;4.69;73.80
75039;BME280;63609;49.992;14.512;2023-03-30T05:59:31;97602.50;;;4.86;73.19
75039;BME280;63609;49.992;14.512;2023-03-30T06:02:13;97595.09;;;4.80;73.35
75039;BME280;63609;49.992;14.512;2023-03-30T06:04:41;97613.50;;;5.03;73.08
75039;BME280;63609;49.992;14.512;2023-03-30T06:07:13;97615.38;;;5.54;71.81
75039;BME280;63609;49.992;14.512;2023-03-30T06:09:40;97608.66;;;5.49;71.95
75039;BME280;63609;49.992;14.512;2023-03-30T06:12:21;97618.47;;;5.17;73.37
75039;BME280;63609;49.992;14.512;2023-03-30T06:14:48;97611.69;;;5.66;71.19
75039;BME280;63609;49.992;14.512;2023-03-30T06:17:35;97617.91;;;5.13;73.04
75039;BME280;63609;49.992;14.512;2023-03-30T06:20:05;97623.59;;;5.30;72.51
75039;BME280;63609;49.992;14.512;2023-03-30T06:22:39;97616.75;;;5.48;73.04
75039;BME280;63609;49.992;14.512;2023-03-30T06:25:17;97622.91;;;5.28;73.16
75039;BME280;63609;49.992;14.512;2023-03-30T06:27:47;97616.28;;;5.22;73.54
75039;BME280;63609;49.992;14.512;2023-03-30T06:30:14;97619.00;;;5.53;73.50
75039;BME280;63609;49.992;14.512;2023-03-30T06:32:46;97648.31;;;5.40;73.35
75039;BME280;63609;49.992;14.512;2023-03-30T06:35:22;97645.69;;;5.61;73.02
75039;BME280;63609;49.992;14.512;2023-03-30T06:37:51;97628.50;;;5.76;72.51
75039;BME280;63609;49.992;14.512;2023-03-30T06:40:19;97633.38;;;5.81;72.18
75039;BME280;63609;49.992;14.512;2023-03-30T06:42:50;97626.69;;;5.76;71.96
75039;BME280;63609;49.992;14.512;2023-03-30T06:45:39;97627.50;;;6.07;71.74
75039;BME280;63609;49.992;14.512;2023-03-30T06:48:07;97621.28;;;5.88;71.61
75039;BME280;63609;49.992;14.512;2023-03-30T06:50:38;97629.09;;;5.89;71.34
75039;BME280;63609;49.992;14.512;2023-03-30T06:53:22;97631.59;;;5.81;72.08
75039;BME280;63609;49.992;14.512;2023-03-30T06:55:55;97635.44;;;5.98;71.49
75039;BME280;63609;49.992;14.512;2023-03-30T06:58:25;97621.66;;;6.04;71.29
75039;BME280;63609;49.992;14.512;2023-03-30T07:00:54;97612.88;;;6.13;71.11
75039;BME280;63609;49.992;14.512;2023-03-30T07:03:44;97617.75;;;6.08;71.49
75039;BME280;63609;49.992;14.512;2023-03-30T07:06:20;97618.34;;;6.21;70.67
75039;BME280;63609;49.992;14.512;2023-03-30T07:08:48;97615.84;;;6.20;71.56
75039;BME280;63609;49.992;14.512;2023-03-30T07:11:20;97622.38;;;6.16;71.42
75039;BME280;63609;49.992;14.512;2023-03-30T07:13:50;97622.59;;;6.43;70.55
75039;BME280;63609;49.992;14.512;2023-03-30T07:16:18;97622.22;;;6.57;70.57
75039;BME280;63609;49.992;14.512;2023-03-30T07:18:45;97630.47;;;6.73;70.17
75039;BME280;63609;49.992;14.512;2023-03-30T07:21:13;97623.94;;;7.07;69.59
75039;BME280;63609;49.992;14.512;2023-03-30T07:23:40;97627.31;;;7.28;69.52
75039;BME280;63609;49.992;14.512;2023-03-30T07:26:20;97628.50;;;7.62;68.05
75039;BME280;63609;49.992;14.512;2023-03-30T07:29:10;97641.41;;;8.32;66.92
75039;BME280;63609;49.992;14.512;2023-03-30T07:31:41;97642.31;;;8.13;67.52
75039;BME280;63609;49.992;14.512;2023-03-30T07:34:10;97647.94;;;8.65;65.68
75039;BME280;63609;49.992;14.512;2023-03-30T07:36:43;97642.63;;;8.37;66.36
75039;BME280;63609;49.992;14.512;2023-03-30T07:39:10;97634.72;;;8.55;64.95
75039;BME280;63609;49.992;14.512;2023-03-30T07:41:41;97636.09;;;8.59;65.06
75039;BME280;63609;49.992;14.512;2023-03-30T07:44:08;97623.53;;;8.51;65.66
75039;BME280;63609;49.992;14.512;2023-03-30T07:46:36;97617.38;;;8.51;65.66
75039;BME280;63609;49.992;14.512;2023-03-30T07:49:04;97625.09;;;8.44;65.33
75039;BME280;63609;49.992;14.512;2023-03-30T07:51:32;97617.38;;;8.51;65.61
75039;BME280;63609;49.992;14.512;2023-03-30T07:54:10;97620.53;;;8.37;65.33
75039;BME280;63609;49.992;14.512;2023-03-30T07:57:02;97620.16;;;8.49;65.67
75039;BME280;63609;49.992;14.512;2023-03-30T07:59:30;97612.63;;;8.45;65.31
75039;BME280;63609;49.992;14.512;2023-03-30T08:02:11;97596.56;;;8.64;64.85
75039;BME280;63609;49.992;14.512;2023-03-30T08:04:44;97596.88;;;8.34;65.61
75039;BME280;63609;49.992;14.512;2023-03-30T08:07:16;97590.13;;;8.39;65.83
75039;BME280;63609;49.992;14.512;2023-03-30T08:09:45;97592.88;;;8.47;65.52
75039;BME280;63609;49.992;14.512;2023-03-30T08:12:13;97573.25;;;8.48;65.30
75039;BME280;63609;49.992;14.512;2023-03-30T08:14:41;97571.25;;;8.60;66.00
75039;BME280;63609;49.992;14.512;2023-03-30T08:17:08;97574.88;;;8.59;66.66
75039;BME280;63609;49.992;14.512;2023-03-30T08:19:35;97573.47;;;8.19;67.09
75039;BME280;63609;49.992;14.512;2023-03-30T08:22:03;97571.88;;;7.99;68.05
75039;BME280;63609;49.992;14.512;2023-03-30T08:24:30;97571.50;;;8.21;68.18
75039;BME280;63609;49.992;14.512;2023-03-30T08:26:59;97564.06;;;8.43;67.87
75039;BME280;63609;49.992;14.512;2023-03-30T08:29:27;97564.28;;;8.32;67.49
75039;BME280;63609;49.992;14.512;2023-03-30T08:31:57;97564.66;;;8.19;68.28
75039;BME280;63609;49.992;14.512;2023-03-30T08:34:24;97557.50;;;8.19;67.86
75039;BME280;63609;49.992;14.512;2023-03-30T08:36:52;97549.81;;;8.16;68.23
75039;BME280;63609;49.992;14.512;2023-03-30T08:39:20;97554.97;;;8.18;67.74
75039;BME280;63609;49.992;14.512;2023-03-30T08:44:35;97532.59;;;8.38;69.39
75039;BME280;63609;49.992;14.512;2023-03-30T08:47:08;97528.59;;;8.52;69.07
75039;BME280;63609;49.992;14.512;2023-03-30T08:49:57;97516.25;;;8.33;69.49
75039;BME280;63609;49.992;14.512;2023-03-30T08:52:26;97531.00;;;8.45;69.30
75039;BME280;63609;49.992;14.512;2023-03-30T08:54:54;97527.53;;;8.63;68.77
75039;BME280;63609;49.992;14.512;2023-03-30T08:57:33;97526.00;;;8.60;68.20
75039;BME280;63609;49.992;14.512;2023-03-30T09:00:19;97521.97;;;8.56;68.31
75039;BME280;63609;49.992;14.512;2023-03-30T09:02:56;97518.13;;;8.68;68.54
75039;BME280;63609;49.992;14.512;2023-03-30T09:05:32;97499.41;;;8.78;68.38
75039;BME280;63609;49.992;14.512;2023-03-30T09:08:23;97506.84;;;8.74;68.02
75039;BME280;63609;49.992;14.512;2023-03-30T09:11:04;97506.31;;;8.88;66.95
75039;BME280;63609;49.992;14.512;2023-03-30T09:13:37;97503.81;;;8.87;67.76
75039;BME280;63609;49.992;14.512;2023-03-30T09:19:05;97509.47;;;8.84;67.62
75039;BME280;63609;49.992;14.512;2023-03-30T09:21:38;97520.78;;;8.86;67.57
75039;BME280;63609;49.992;14.512;2023-03-30T09:24:15;97522.41;;;9.05;67.13
75039;BME280;63609;49.992;14.512;2023-03-30T09:26:49;97529.19;;;8.81;67.83
75039;BME280;63609;49.992;14.512;2023-03-30T09:29:30;97535.66;;;8.79;68.46
75039;BME280;63609;49.992;14.512;2023-03-30T09:32:16;97529.34;;;8.62;69.62
75039;BME280;63609;49.992;14.512;2023-03-30T09:34:56;97536.28;;;8.55;70.08
75039;BME280;63609;49.992;14.512;2023-03-30T09:37:24;97531.97;;;8.89;69.80
75039;BME280;63609;49.992;14.512;2023-03-30T09:39:53;97537.31;;;8.62;70.75
75039;BME280;63609;49.992;14.512;2023-03-30T09:45:25;97549.16;;;8.32;72.41
75039;BME280;63609;49.992;14.512;2023-03-30T09:47:53;97548.72;;;8.37;72.23
75039;BME280;63609;49.992;14.512;2023-03-30T09:50:26;97545.09;;;8.55;72.18
75039;BME280;63609;49.992;14.512;2023-03-30T09:53:01;97544.56;;;8.52;72.69
75039;BME280;63609;49.992;14.512;2023-03-30T09:58:16;97539.00;;;8.99;71.46
75039;BME280;63609;49.992;14.512;2023-03-30T10:00:46;97538.84;;;8.65;72.71
75039;BME280;63609;49.992;14.512;2023-03-30T10:03:27;97531.13;;;8.71;72.37
75039;BME280;63609;49.992;14.512;2023-03-30T10:06:14;97546.31;;;8.79;72.81
75039;BME280;63609;49.992;14.512;2023-03-30T10:08:53;97549.13;;;8.59;72.83
75039;BME280;63609;49.992;14.512;2023-03-30T10:11:49;97557.59;;;8.45;73.27
75039;BME280;63609;49.992;14.512;2023-03-30T10:14:35;97567.00;;;8.67;73.32
75039;BME280;63609;49.992;14.512;2023-03-30T10:17:04;97586.91;;;8.81;72.23
75039;BME280;63609;49.992;14.512;2023-03-30T10:19:33;97619.47;;;8.47;73.55
75039;BME280;63609;49.992;14.512;2023-03-30T10:22:17;97627.75;;;8.44;74.14
75039;BME280;63609;49.992;14.512;2023-03-30T10:24:49;97636.19;;;8.40;74.29
75039;BME280;63609;49.992;14.512;2023-03-30T10:27:25;97651.28;;;8.12;75.29
75039;BME280;63609;49.992;14.512;2023-03-30T10:29:56;97656.63;;;8.02;75.66
75039;BME280;63609;49.992;14.512;2023-03-30T10:32:29;97661.63;;;8.15;75.50
75039;BME280;63609;49.992;14.512;2023-03-30T10:34:59;97662.84;;;7.83;76.68
75039;BME280;63609;49.992;14.512;2023-03-30T10:37:38;97667.78;;;8.15;75.76
75039;BME280;63609;49.992;14.512;2023-03-30T10:42:57;97674.66;;;8.08;76.73
75039;BME280;63609;49.992;14.512;2023-03-30T10:45:46;97681.38;;;8.12;76.49
75039;BME280;63609;49.992;14.512;2023-03-30T10:57:08;97674.03;;;8.61;75.96
75039;BME280;63609;49.992;14.512;2023-03-30T11:02:38;97673.56;;;8.66;76.40
75039;BME280;63609;49.992;14.512;2023-03-30T11:05:30;97667.78;;;8.98;75.03
75039;BME280;63609;49.992;14.512;2023-03-30T11:10:35;97651.81;;;8.98;75.13
75039;BME280;63609;49.992;14.512;2023-03-30T11:13:06;97657.00;;;9.17;74.89
75039;BME280;63609;49.992;14.512;2023-03-30T11:15:43;97660.06;;;9.22;74.67
75039;BME280;63609;49.992;14.512;2023-03-30T11:21:30;97645.91;;;9.22;75.03
75039;BME280;63609;49.992;14.512;2023-03-30T11:24:08;97650.47;;;8.94;75.80
75039;BME280;63609;49.992;14.512;2023-03-30T11:26:45;97650.22;;;9.05;75.89
75039;BME280;63609;49.992;14.512;2023-03-30T11:29:28;97628.56;;;9.61;74.14
75039;BME280;63609;49.992;14.512;2023-03-30T11:37:44;97622.81;;;9.12;74.82
75039;BME280;63609;49.992;14.512;2023-03-30T11:42:45;97610.34;;;9.13;75.35
75039;BME280;63609;49.992;14.512;2023-03-30T11:56:45;97588.44;;;9.45;75.38
75039;BME280;63609;49.992;14.512;2023-03-30T12:00:06;97586.25;;;9.40;76.14
75039;BME280;63609;49.992;14.512;2023-03-30T12:02:31;97568.53;;;9.49;75.10
75039;BME280;63609;49.992;14.512;2023-03-30T12:05:23;97553.78;;;9.37;75.67
75039;BME280;63609;49.992;14.512;2023-03-30T12:13:41;97515.97;;;9.33;74.67
75039;BME280;63609;49.992;14.512;2023-03-30T12:16:23;97509.22;;;9.21;74.94
75039;BME280;63609;49.992;14.512;2023-03-30T12:19:10;97515.06;;;9.25;74.71
75039;BME280;63609;49.992;14.512;2023-03-30T12:24:26;97518.81;;;9.14;75.13
75039;BME280;63609;49.992;14.512;2023-03-30T12:27:02;97512.09;;;9.28;73.55
75039;BME280;63609;49.992;14.512;2023-03-30T12:29:50;97514.84;;;9.44;72.76
75039;BME280;63609;49.992;14.512;2023-03-30T12:32:25;97519.09;;;9.29;73.11
75039;BME280;63609;49.992;14.512;2023-03-30T12:34:56;97521.69;;;9.46;73.11
75039;BME280;63609;49.992;14.512;2023-03-30T12:37:31;97514.47;;;9.65;72.67
75039;BME280;63609;49.992;14.512;2023-03-30T12:40:01;97519.06;;;10.15;71.28
75039;BME280;63609;49.992;14.512;2023-03-30T12:42:45;97502.84;;;9.74;72.33
75039;BME280;63609;49.992;14.512;2023-03-30T12:45:28;97513.13;;;9.95;71.77
75039;BME280;63609;49.992;14.512;2023-03-30T12:51:13;97499.00;;;10.02;72.76
75039;BME280;63609;49.992;14.512;2023-03-30T12:53:52;97491.19;;;10.09;74.36
75039;BME280;63609;49.992;14.512;2023-03-30T13:02:42;97455.56;;;10.34;74.08
75039;BME280;63609;49.992;14.512;2023-03-30T13:05:23;97447.56;;;10.34;73.16
75039;BME280;63609;49.992;14.512;2023-03-30T13:07:53;97432.53;;;10.17;74.11
75039;BME280;63609;49.992;14.512;2023-03-30T13:13:00;97405.03;;;9.58;73.05
75039;BME280;63609;49.992;14.512;2023-03-30T13:23:25;97421.69;;;10.19;71.99
75039;BME280;63609;49.992;14.512;2023-03-30T13:26:20;97420.03;;;10.42;71.84
75039;BME280;63609;49.992;14.512;2023-03-30T13:29:10;97435.53;;;10.22;71.79
75039;BME280;63609;49.992;14.512;2023-03-30T13:45:47;97393.31;;;10.09;71.55
75039;BME280;63609;49.992;14.512;2023-03-30T13:51:19;97404.69;;;10.60;70.15
75039;BME280;63609;49.992;14.512;2023-03-30T13:54:06;97415.88;;;10.72;70.39
75039;BME280;63609;49.992;14.512;2023-03-30T13:56:38;97399.03;;;10.55;71.33
75039;BME280;63609;49.992;14.512;2023-03-30T13:59:20;97407.03;;;10.55;71.25
75039;BME280;63609;49.992;14.512;2023-03-30T14:01:52;97401.34;;;10.66;71.15
75039;BME280;63609;49.992;14.512;2023-03-30T14:04:21;97406.22;;;10.55;71.24
75039;BME280;63609;49.992;14.512;2023-03-30T14:07:21;97407.88;;;10.64;70.68
75039;BME280;63609;49.992;14.512;2023-03-30T14:12:32;97406.53;;;10.60;71.34
75039;BME280;63609;49.992;14.512;2023-03-30T14:15:16;97389.69;;;10.35;71.44
75039;BME280;63609;49.992;14.512;2023-03-30T14:17:47;97390.84;;;10.40;71.31
75039;BME280;63609;49.992;14.512;2023-03-30T14:22:53;97407.19;;;10.21;72.02
75039;BME280;63609;49.992;14.512;2023-03-30T14:28:18;97383.31;;;10.03;72.22
75039;BME280;63609;49.992;14.512;2023-03-30T14:30:49;97379.50;;;9.98;71.75
75039;BME280;63609;49.992;14.512;2023-03-30T14:33:17;97377.16;;;9.95;71.62
75039;BME280;63609;49.992;14.512;2023-03-30T14:35:54;97381.19;;;10.15;70.84
75039;BME280;63609;49.992;14.512;2023-03-30T14:38:28;97382.00;;;10.07;71.14
75039;BME280;63609;49.992;14.512;2023-03-30T14:40:57;97384.84;;;10.14;71.39
75039;BME280;63609;49.992;14.512;2023-03-30T14:43:28;97377.84;;;10.21;70.81
75039;BME280;63609;49.992;14.512;2023-03-30T14:46:01;97367.31;;;10.11;70.71
75039;BME280;63609;49.992;14.512;2023-03-30T14:48:36;97368.00;;;10.05;71.52
75039;BME280;63609;49.992;14.512;2023-03-30T14:51:17;97359.47;;;9.94;71.70
75039;BME280;63609;49.992;14.512;2023-03-30T14:53:45;97355.25;;;9.75;72.49
75039;BME280;63609;49.992;14.512;2023-03-30T14:56:14;97347.66;;;10.04;71.28
75039;BME280;63609;49.992;14.512;2023-03-30T14:58:43;97340.84;;;10.26;70.12
75039;BME280;63609;49.992;14.512;2023-03-30T15:01:19;97348.31;;;9.98;70.13
75039;BME280;63609;49.992;14.512;2023-03-30T15:03:51;97359.19;;;10.29;69.78
75039;BME280;63609;49.992;14.512;2023-03-30T15:06:37;97359.84;;;10.56;68.47
75039;BME280;63609;49.992;14.512;2023-03-30T15:09:19;97354.34;;;10.33;69.46
75039;BME280;63609;49.992;14.512;2023-03-30T15:11:50;97349.50;;;10.12;70.59
75039;BME280;63609;49.992;14.512;2023-03-30T15:14:20;97350.34;;;10.21;70.36
75039;BME280;63609;49.992;14.512;2023-03-30T15:16:51;97346.31;;;10.65;68.74
75039;BME280;63609;49.992;14.512;2023-03-30T15:19:29;97345.56;;;11.12;68.57
75039;BME280;63609;49.992;14.512;2023-03-30T15:22:00;97347.22;;;11.13;67.56
75039;BME280;63609;49.992;14.512;2023-03-30T15:24:34;97336.53;;;11.52;67.47
75039;BME280;63609;49.992;14.512;2023-03-30T15:27:05;97344.31;;;11.31;66.91
75039;BME280;63609;49.992;14.512;2023-03-30T15:29:33;97330.63;;;11.88;64.91
75039;BME280;63609;49.992;14.512;2023-03-30T15:32:14;97336.31;;;12.16;64.34
75039;BME280;63609;49.992;14.512;2023-03-30T15:35:01;97348.84;;;11.61;63.99
75039;BME280;63609;49.992;14.512;2023-03-30T15:37:33;97349.53;;;11.86;62.89
75039;BME280;63609;49.992;14.512;2023-03-30T15:43:23;97347.56;;;11.80;62.39
75039;BME280;63609;49.992;14.512;2023-03-30T15:46:03;97337.91;;;11.71;62.62
75039;BME280;63609;49.992;14.512;2023-03-30T15:48:41;97358.13;;;11.74;61.81
75039;BME280;63609;49.992;14.512;2023-03-30T15:51:31;97353.44;;;11.76;62.38
75039;BME280;63609;49.992;14.512;2023-03-30T15:57:00;97344.97;;;11.64;62.22
75039;BME280;63609;49.992;14.512;2023-03-30T15:59:34;97339.34;;;11.20;62.74
75039;BME280;63609;49.992;14.512;2023-03-30T16:02:11;97334.81;;;11.59;61.59
75039;BME280;63609;49.992;14.512;2023-03-30T16:04:41;97334.16;;;11.57;60.76
75039;BME280;63609;49.992;14.512;2023-03-30T16:07:20;97345.56;;;11.43;61.13
75039;BME280;63609;49.992;14.512;2023-03-30T16:09:51;97350.78;;;11.45;61.45
75039;BME280;63609;49.992;14.512;2023-03-30T16:12:21;97357.19;;;11.27;61.27
75039;BME280;63609;49.992;14.512;2023-03-30T16:14:51;97367.72;;;11.60;61.29
75039;BME280;63609;49.992;14.512;2023-03-30T16:17:18;97366.03;;;11.28;60.70
75039;BME280;63609;49.992;14.512;2023-03-30T16:19:46;97371.38;;;11.28;61.16
75039;BME280;63609;49.992;14.512;2023-03-30T16:22:14;97368.56;;;11.21;61.04